sensor_id;sensor_type;location;lat;lon;timestamp;temperature;humidity
3562;DHT22;1795;52.074;4.754;2022-10-03T00:01:48;11.00;99.90
3562;DHT22;1795;52.074;4.754;2022-10-03T00:04:40;11.00;99.90
3562;DHT22;1795;52.074;4.754;2022-10-03T00:07:23;11.00;99.90
3562;DHT22;1795;52.074;4.754;2022-10-03T00:10:04;11.00;99.90
3562;DHT22;1795;52.074;4.754;2022-10-03T00:12:43;11.00;99.90
3562;DHT22;1795;52.074;4.754;2022-10-03T00:15:17;11.00;99.90
3562;DHT22;1795;52.074;4.754;2022-10-03T00:17:58;10.90;99.90
3562;DHT22;1795;52.074;4.754;2022-10-03T00:20:37;10.90;99.90
3562;DHT22;1795;52.074;4.754;2022-10-03T00:23:13;10.90;99.90
3562;DHT22;1795;52.074;4.754;2022-10-03T00:25:48;10.90;99.90
3562;DHT22;1795;52.074;4.754;2022-10-03T00:31:12;10.90;99.90
3562;DHT22;1795;52.074;4.754;2022-10-03T00:33:57;10.90;99.90
3562;DHT22;1795;52.074;4.754;2022-10-03T00:36:36;10.90;99.90
3562;DHT22;1795;52.074;4.754;2022-10-03T00:39:22;10.80;99.90
3562;DHT22;1795;52.074;4.754;2022-10-03T00:42:22;10.80;99.90
3562;DHT22;1795;52.074;4.754;2022-10-03T00:51:12;10.80;99.90
3562;DHT22;1795;52.074;4.754;2022-10-03T00:53:55;10.70;99.90
3562;DHT22;1795;52.074;4.754;2022-10-03T00:56:56;10.80;99.90
3562;DHT22;1795;52.074;4.754;2022-10-03T00:59:38;10.70;99.90
3562;DHT22;1795;52.074;4.754;2022-10-03T01:02:30;10.70;99.90
3562;DHT22;1795;52.074;4.754;2022-10-03T01:05:11;10.70;99.90
3562;DHT22;1795;52.074;4.754;2022-10-03T01:07:57;10.70;99.90
3562;DHT22;1795;52.074;4.754;2022-10-03T01:10:33;10.70;99.90
3562;DHT22;1795;52.074;4.754;2022-10-03T01:13:19;10.70;99.90
3562;DHT22;1795;52.074;4.754;2022-10-03T01:15:54;10.70;99.90
3562;DHT22;1795;52.074;4.754;2022-10-03T01:18:34;10.60;99.90
3562;DHT22;1795;52.074;4.754;2022-10-03T01:21:13;10.60;99.90
3562;DHT22;1795;52.074;4.754;2022-10-03T01:24:15;10.60;99.90
3562;DHT22;1795;52.074;4.754;2022-10-03T01:26:56;10.60;99.90
3562;DHT22;1795;52.074;4.754;2022-10-03T01:29:35;10.70;99.90
3562;DHT22;1795;52.074;4.754;2022-10-03T01:32:25;10.60;99.90
3562;DHT22;1795;52.074;4.754;2022-10-03T01:35:03;10.50;99.90
3562;DHT22;1795;52.074;4.754;2022-10-03T01:37:40;10.60;99.90
3562;DHT22;1795;52.074;4.754;2022-10-03T01:40:18;10.50;99.90
3562;DHT22;1795;52.074;4.754;2022-10-03T01:42:58;10.60;99.90
3562;DHT22;1795;52.074;4.754;2022-10-03T01:45:36;10.50;99.90
3562;DHT22;1795;52.074;4.754;2022-10-03T01:48:13;10.50;99.90
3562;DHT22;1795;52.074;4.754;2022-10-03T01:50:51;10.50;99.90
3562;DHT22;1795;52.074;4.754;2022-10-03T01:53:28;10.50;99.90
3562;DHT22;1795;52.074;4.754;2022-10-03T01:56:07;10.50;99.90
3562;DHT22;1795;52.074;4.754;2022-10-03T01:58:47;10.50;99.90
3562;DHT22;1795;52.074;4.754;2022-10-03T02:01:25;10.50;99.90
3562;DHT22;1795;52.074;4.754;2022-10-03T02:03:59;10.50;99.90
3562;DHT22;1795;52.074;4.754;2022-10-03T02:06:40;10.50;99.90
3562;DHT22;1795;52.074;4.754;2022-10-03T02:09:19;10.50;99.90
3562;DHT22;1795;52.074;4.754;2022-10-03T02:12:01;10.40;99.90
3562;DHT22;1795;52.074;4.754;2022-10-03T02:14:39;10.40;99.90
3562;DHT22;1795;52.074;4.754;2022-10-03T02:17:19;10.40;99.90
3562;DHT22;1795;52.074;4.754;2022-10-03T02:19:56;10.40;99.90
3562;DHT22;1795;52.074;4.754;2022-10-03T02:22:29;10.40;99.90
3562;DHT22;1795;52.074;4.754;2022-10-03T02:25:08;10.40;99.90
3562;DHT22;1795;52.074;4.754;2022-10-03T02:28:19;10.50;99.90
3562;DHT22;1795;52.074;4.754;2022-10-03T02:31:20;10.40;99.90
3562;DHT22;1795;52.074;4.754;2022-10-03T02:40:05;10.30;99.90
3562;DHT22;1795;52.074;4.754;2022-10-03T02:46:08;10.30;99.90
3562;DHT22;1795;52.074;4.754;2022-10-03T02:51:54;10.30;99.90
3562;DHT22;1795;52.074;4.754;2022-10-03T02:54:48;10.30;99.90
3562;DHT22;1795;52.074;4.754;2022-10-03T03:10:32;10.20;99.90
3562;DHT22;1795;52.074;4.754;2022-10-03T03:16:38;10.20;99.90
3562;DHT22;1795;52.074;4.754;2022-10-03T03:19:31;10.10;99.90
3562;DHT22;1795;52.074;4.754;2022-10-03T03:22:14;10.10;99.90
3562;DHT22;1795;52.074;4.754;2022-10-03T03:25:04;10.10;99.90
3562;DHT22;1795;52.074;4.754;2022-10-03T03:27:42;10.10;99.90
3562;DHT22;1795;52.074;4.754;2022-10-03T03:30:16;10.10;99.90
3562;DHT22;1795;52.074;4.754;2022-10-03T03:32:58;10.10;99.90
3562;DHT22;1795;52.074;4.754;2022-10-03T03:35:36;10.00;99.90
3562;DHT22;1795;52.074;4.754;2022-10-03T03:38:13;10.00;99.90
3562;DHT22;1795;52.074;4.754;2022-10-03T03:40:50;10.00;99.90
3562;DHT22;1795;52.074;4.754;2022-10-03T03:43:42;10.00;99.90
3562;DHT22;1795;52.074;4.754;2022-10-03T03:46:22;10.00;99.90
3562;DHT22;1795;52.074;4.754;2022-10-03T03:49:02;10.00;99.90
3562;DHT22;1795;52.074;4.754;2022-10-03T03:51:41;10.00;99.90
3562;DHT22;1795;52.074;4.754;2022-10-03T03:54:42;10.00;99.90
3562;DHT22;1795;52.074;4.754;2022-10-03T03:57:33;9.90;99.90
3562;DHT22;1795;52.074;4.754;2022-10-03T04:00:12;10.00;99.90
3562;DHT22;1795;52.074;4.754;2022-10-03T04:02:56;9.90;99.90
3562;DHT22;1795;52.074;4.754;2022-10-03T04:05:41;9.80;99.90
3562;DHT22;1795;52.074;4.754;2022-10-03T04:08:30;9.90;99.90
3562;DHT22;1795;52.074;4.754;2022-10-03T04:11:13;9.90;99.90
3562;DHT22;1795;52.074;4.754;2022-10-03T04:13:57;9.80;99.90
3562;DHT22;1795;52.074;4.754;2022-10-03T04:16:45;9.90;99.90
3562;DHT22;1795;52.074;4.754;2022-10-03T04:19:47;9.80;99.90
3562;DHT22;1795;52.074;4.754;2022-10-03T04:22:30;9.80;99.90
3562;DHT22;1795;52.074;4.754;2022-10-03T04:25:22;9.90;99.90
3562;DHT22;1795;52.074;4.754;2022-10-03T04:28:18;9.70;99.90
3562;DHT22;1795;52.074;4.754;2022-10-03T04:31:03;9.70;99.90
3562;DHT22;1795;52.074;4.754;2022-10-03T04:33:42;9.80;99.90
3562;DHT22;1795;52.074;4.754;2022-10-03T04:36:30;9.70;99.90
3562;DHT22;1795;52.074;4.754;2022-10-03T04:39:08;9.70;99.90
3562;DHT22;1795;52.074;4.754;2022-10-03T04:41:43;9.70;99.90
3562;DHT22;1795;52.074;4.754;2022-10-03T04:44:31;9.70;99.90
3562;DHT22;1795;52.074;4.754;2022-10-03T04:47:08;9.70;99.90
3562;DHT22;1795;52.074;4.754;2022-10-03T04:49:43;9.70;99.90
3562;DHT22;1795;52.074;4.754;2022-10-03T04:52:18;9.70;99.90
3562;DHT22;1795;52.074;4.754;2022-10-03T04:54:56;9.70;99.90
3562;DHT22;1795;52.074;4.754;2022-10-03T04:57:35;9.70;99.90
3562;DHT22;1795;52.074;4.754;2022-10-03T05:00:21;9.70;99.90
3562;DHT22;1795;52.074;4.754;2022-10-03T05:02:54;9.60;99.90
3562;DHT22;1795;52.074;4.754;2022-10-03T05:05:33;9.60;99.90
3562;DHT22;1795;52.074;4.754;2022-10-03T05:08:18;9.70;99.90
3562;DHT22;1795;52.074;4.754;2022-10-03T05:11:00;9.60;99.90
3562;DHT22;1795;52.074;4.754;2022-10-03T05:13:42;9.60;99.90
3562;DHT22;1795;52.074;4.754;2022-10-03T05:16:23;9.60;99.90
3562;DHT22;1795;52.074;4.754;2022-10-03T05:19:00;9.60;99.90
3562;DHT22;1795;52.074;4.754;2022-10-03T05:21:35;9.60;99.90
3562;DHT22;1795;52.074;4.754;2022-10-03T05:24:15;9.60;99.90
3562;DHT22;1795;52.074;4.754;2022-10-03T05:26:52;9.60;99.90
3562;DHT22;1795;52.074;4.754;2022-10-03T05:29:30;9.60;99.90
3562;DHT22;1795;52.074;4.754;2022-10-03T05:32:12;9.60;99.90
3562;DHT22;1795;52.074;4.754;2022-10-03T05:34:59;9.60;99.90
3562;DHT22;1795;52.074;4.754;2022-10-03T05:37:47;9.60;99.90
3562;DHT22;1795;52.074;4.754;2022-10-03T05:40:23;9.70;99.90
3562;DHT22;1795;52.074;4.754;2022-10-03T05:43:00;9.60;99.90
3562;DHT22;1795;52.074;4.754;2022-10-03T05:45:38;9.60;99.90
3562;DHT22;1795;52.074;4.754;2022-10-03T05:48:27;9.60;99.90
3562;DHT22;1795;52.074;4.754;2022-10-03T05:57:23;9.70;99.90
3562;DHT22;1795;52.074;4.754;2022-10-03T06:00:14;9.70;99.90
3562;DHT22;1795;52.074;4.754;2022-10-03T06:03:04;9.70;99.90
3562;DHT22;1795;52.074;4.754;2022-10-03T06:05:53;9.70;99.90
3562;DHT22;1795;52.074;4.754;2022-10-03T06:08:43;9.70;99.90
3562;DHT22;1795;52.074;4.754;2022-10-03T06:11:26;9.70;99.90
3562;DHT22;1795;52.074;4.754;2022-10-03T06:17:13;9.80;99.90
3562;DHT22;1795;52.074;4.754;2022-10-03T06:19:48;9.80;99.90
3562;DHT22;1795;52.074;4.754;2022-10-03T06:22:38;9.90;99.90
3562;DHT22;1795;52.074;4.754;2022-10-03T06:29:16;9.90;99.90
3562;DHT22;1795;52.074;4.754;2022-10-03T06:32:24;10.00;99.90
3562;DHT22;1795;52.074;4.754;2022-10-03T06:35:31;10.00;99.90
3562;DHT22;1795;52.074;4.754;2022-10-03T06:44:45;10.10;99.90
3562;DHT22;1795;52.074;4.754;2022-10-03T06:47:29;10.20;99.90
3562;DHT22;1795;52.074;4.754;2022-10-03T06:53:33;10.20;99.90
3562;DHT22;1795;52.074;4.754;2022-10-03T06:56:46;10.30;99.90
3562;DHT22;1795;52.074;4.754;2022-10-03T06:59:42;10.30;99.90
3562;DHT22;1795;52.074;4.754;2022-10-03T07:09:03;10.40;99.90
3562;DHT22;1795;52.074;4.754;2022-10-03T07:11:58;10.50;99.90
3562;DHT22;1795;52.074;4.754;2022-10-03T07:17:47;10.60;99.90
3562;DHT22;1795;52.074;4.754;2022-10-03T07:20:46;10.60;99.90
3562;DHT22;1795;52.074;4.754;2022-10-03T07:23:53;10.70;99.90
3562;DHT22;1795;52.074;4.754;2022-10-03T07:26:55;10.70;99.90
3562;DHT22;1795;52.074;4.754;2022-10-03T07:29:52;10.90;99.90
3562;DHT22;1795;52.074;4.754;2022-10-03T07:35:49;10.90;99.90
3562;DHT22;1795;52.074;4.754;2022-10-03T07:44:50;11.10;99.90
3562;DHT22;1795;52.074;4.754;2022-10-03T07:47:58;11.10;99.90
3562;DHT22;1795;52.074;4.754;2022-10-03T07:57:02;11.30;99.90
3562;DHT22;1795;52.074;4.754;2022-10-03T07:59:52;11.40;99.90
3562;DHT22;1795;52.074;4.754;2022-10-03T08:05:29;11.50;99.90
3562;DHT22;1795;52.074;4.754;2022-10-03T08:08:17;11.50;99.90
3562;DHT22;1795;52.074;4.754;2022-10-03T08:11:07;11.50;99.90
3562;DHT22;1795;52.074;4.754;2022-10-03T08:17:05;11.70;99.90
3562;DHT22;1795;52.074;4.754;2022-10-03T08:20:04;11.70;99.90
3562;DHT22;1795;52.074;4.754;2022-10-03T08:22:44;11.80;99.90
3562;DHT22;1795;52.074;4.754;2022-10-03T08:25:26;11.80;99.90
3562;DHT22;1795;52.074;4.754;2022-10-03T08:28:23;11.90;99.90
3562;DHT22;1795;52.074;4.754;2022-10-03T08:31:20;11.90;99.90
3562;DHT22;1795;52.074;4.754;2022-10-03T08:37:21;12.10;99.90
3562;DHT22;1795;52.074;4.754;2022-10-03T08:40:37;12.20;99.90
3562;DHT22;1795;52.074;4.754;2022-10-03T08:43:42;12.20;99.90
3562;DHT22;1795;52.074;4.754;2022-10-03T08:49:33;12.40;99.90
3562;DHT22;1795;52.074;4.754;2022-10-03T08:52:18;12.40;99.90
3562;DHT22;1795;52.074;4.754;2022-10-03T08:58:24;12.50;99.90
3562;DHT22;1795;52.074;4.754;2022-10-03T09:01:21;12.60;99.90
3562;DHT22;1795;52.074;4.754;2022-10-03T09:07:17;12.70;99.90
3562;DHT22;1795;52.074;4.754;2022-10-03T09:13:19;12.80;99.90
3562;DHT22;1795;52.074;4.754;2022-10-03T09:16:16;12.90;99.90
3562;DHT22;1795;52.074;4.754;2022-10-03T09:19:05;13.00;99.90
3562;DHT22;1795;52.074;4.754;2022-10-03T09:22:00;13.00;99.90
3562;DHT22;1795;52.074;4.754;2022-10-03T09:24:59;13.10;99.90
3562;DHT22;1795;52.074;4.754;2022-10-03T09:27:45;13.10;99.90
3562;DHT22;1795;52.074;4.754;2022-10-03T09:30:22;13.20;99.90
3562;DHT22;1795;52.074;4.754;2022-10-03T09:39:35;13.40;99.90
3562;DHT22;1795;52.074;4.754;2022-10-03T09:42:34;13.50;99.90
3562;DHT22;1795;52.074;4.754;2022-10-03T09:48:36;13.50;99.90
3562;DHT22;1795;52.074;4.754;2022-10-03T09:51:24;13.70;99.90
3562;DHT22;1795;52.074;4.754;2022-10-03T09:57:41;13.80;99.90
3562;DHT22;1795;52.074;4.754;2022-10-03T10:00:20;13.90;99.90
3562;DHT22;1795;52.074;4.754;2022-10-03T10:03:08;13.90;99.90
3562;DHT22;1795;52.074;4.754;2022-10-03T10:06:04;14.00;99.90
3562;DHT22;1795;52.074;4.754;2022-10-03T10:08:56;14.10;99.90
3562;DHT22;1795;52.074;4.754;2022-10-03T10:11:46;14.10;99.90
3562;DHT22;1795;52.074;4.754;2022-10-03T10:14:36;14.30;99.90
3562;DHT22;1795;52.074;4.754;2022-10-03T10:17:29;14.40;99.90
3562;DHT22;1795;52.074;4.754;2022-10-03T10:20:23;14.40;99.90
3562;DHT22;1795;52.074;4.754;2022-10-03T10:23:23;14.50;99.90
3562;DHT22;1795;52.074;4.754;2022-10-03T10:29:23;14.60;99.90
3562;DHT22;1795;52.074;4.754;2022-10-03T10:32:34;14.70;99.90
3562;DHT22;1795;52.074;4.754;2022-10-03T10:35:35;14.80;99.90
3562;DHT22;1795;52.074;4.754;2022-10-03T10:38:26;14.90;99.90
3562;DHT22;1795;52.074;4.754;2022-10-03T10:41:41;15.00;99.90
3562;DHT22;1795;52.074;4.754;2022-10-03T10:57:36;15.50;99.90
3562;DHT22;1795;52.074;4.754;2022-10-03T11:00:21;15.50;99.90
3562;DHT22;1795;52.074;4.754;2022-10-03T11:07:03;15.50;99.90
3562;DHT22;1795;52.074;4.754;2022-10-03T11:09:53;15.50;99.90
3562;DHT22;1795;52.074;4.754;2022-10-03T11:15:45;15.70;99.90
3562;DHT22;1795;52.074;4.754;2022-10-03T11:21:42;16.00;99.90
3562;DHT22;1795;52.074;4.754;2022-10-03T11:31:47;16.10;99.90
3562;DHT22;1795;52.074;4.754;2022-10-03T11:34:56;16.20;99.90
3562;DHT22;1795;52.074;4.754;2022-10-03T11:37:38;16.30;99.90
3562;DHT22;1795;52.074;4.754;2022-10-03T11:40:21;16.30;99.90
3562;DHT22;1795;52.074;4.754;2022-10-03T11:42:58;16.30;99.90
3562;DHT22;1795;52.074;4.754;2022-10-03T11:45:31;16.30;99.90
3562;DHT22;1795;52.074;4.754;2022-10-03T11:48:25;16.60;99.90
3562;DHT22;1795;52.074;4.754;2022-10-03T11:51:03;16.40;99.90
3562;DHT22;1795;52.074;4.754;2022-10-03T11:53:44;16.50;99.90
3562;DHT22;1795;52.074;4.754;2022-10-03T11:56:31;16.40;99.90
3562;DHT22;1795;52.074;4.754;2022-10-03T11:59:25;16.60;99.90
3562;DHT22;1795;52.074;4.754;2022-10-03T12:02:09;16.60;99.90
3562;DHT22;1795;52.074;4.754;2022-10-03T12:04:49;16.50;99.90
3562;DHT22;1795;52.074;4.754;2022-10-03T12:07:34;16.60;99.90
3562;DHT22;1795;52.074;4.754;2022-10-03T12:10:34;16.70;99.90
3562;DHT22;1795;52.074;4.754;2022-10-03T12:13:09;16.60;99.90
3562;DHT22;1795;52.074;4.754;2022-10-03T12:15:44;16.70;99.90
3562;DHT22;1795;52.074;4.754;2022-10-03T12:18:17;16.60;99.90
3562;DHT22;1795;52.074;4.754;2022-10-03T12:21:04;16.60;99.90
3562;DHT22;1795;52.074;4.754;2022-10-03T12:23:45;16.60;99.90
3562;DHT22;1795;52.074;4.754;2022-10-03T12:26:26;16.80;99.90
3562;DHT22;1795;52.074;4.754;2022-10-03T12:28:59;16.70;99.90
3562;DHT22;1795;52.074;4.754;2022-10-03T12:31:33;16.90;99.90
3562;DHT22;1795;52.074;4.754;2022-10-03T12:34:18;16.70;99.90
3562;DHT22;1795;52.074;4.754;2022-10-03T12:36:57;16.80;99.90
3562;DHT22;1795;52.074;4.754;2022-10-03T12:39:37;16.70;99.90
3562;DHT22;1795;52.074;4.754;2022-10-03T12:42:19;16.80;99.90
3562;DHT22;1795;52.074;4.754;2022-10-03T12:44:56;16.90;99.90
3562;DHT22;1795;52.074;4.754;2022-10-03T12:47:31;16.70;99.90
3562;DHT22;1795;52.074;4.754;2022-10-03T12:50:34;16.70;99.90
3562;DHT22;1795;52.074;4.754;2022-10-03T12:53:27;16.80;99.90
3562;DHT22;1795;52.074;4.754;2022-10-03T12:56:12;16.80;99.90
3562;DHT22;1795;52.074;4.754;2022-10-03T12:58:54;17.00;99.90
3562;DHT22;1795;52.074;4.754;2022-10-03T13:01:34;16.80;99.90
3562;DHT22;1795;52.074;4.754;2022-10-03T13:04:10;16.90;99.90
3562;DHT22;1795;52.074;4.754;2022-10-03T13:06:52;16.70;99.90
3562;DHT22;1795;52.074;4.754;2022-10-03T13:09:48;17.00;99.90
3562;DHT22;1795;52.074;4.754;2022-10-03T13:12:35;16.80;99.90
3562;DHT22;1795;52.074;4.754;2022-10-03T13:15:38;16.70;99.90
3562;DHT22;1795;52.074;4.754;2022-10-03T13:18:18;16.70;99.90
3562;DHT22;1795;52.074;4.754;2022-10-03T13:20:57;16.80;99.90
3562;DHT22;1795;52.074;4.754;2022-10-03T13:23:34;16.80;99.90
3562;DHT22;1795;52.074;4.754;2022-10-03T13:26:10;16.70;99.90
3562;DHT22;1795;52.074;4.754;2022-10-03T13:32:09;16.70;99.90
3562;DHT22;1795;52.074;4.754;2022-10-03T13:34:59;16.70;99.90
3562;DHT22;1795;52.074;4.754;2022-10-03T13:38:04;16.70;99.90
3562;DHT22;1795;52.074;4.754;2022-10-03T13:40:38;16.70;99.90
3562;DHT22;1795;52.074;4.754;2022-10-03T13:43:12;16.80;99.90
3562;DHT22;1795;52.074;4.754;2022-10-03T13:45:43;16.60;99.90
3562;DHT22;1795;52.074;4.754;2022-10-03T13:48:18;16.70;99.90
3562;DHT22;1795;52.074;4.754;2022-10-03T13:50:52;16.70;99.90
3562;DHT22;1795;52.074;4.754;2022-10-03T13:53:39;16.70;99.90
3562;DHT22;1795;52.074;4.754;2022-10-03T13:56:12;16.90;99.90
3562;DHT22;1795;52.074;4.754;2022-10-03T13:58:46;16.80;99.90
3562;DHT22;1795;52.074;4.754;2022-10-03T14:01:31;16.90;99.90
3562;DHT22;1795;52.074;4.754;2022-10-03T14:04:27;16.90;99.90
3562;DHT22;1795;52.074;4.754;2022-10-03T14:07:09;16.90;99.90
3562;DHT22;1795;52.074;4.754;2022-10-03T14:12:54;16.70;99.90
3562;DHT22;1795;52.074;4.754;2022-10-03T14:15:32;16.70;99.90
3562;DHT22;1795;52.074;4.754;2022-10-03T14:18:12;16.70;99.90
3562;DHT22;1795;52.074;4.754;2022-10-03T14:21:28;16.80;99.90
3562;DHT22;1795;52.074;4.754;2022-10-03T14:24:11;16.70;99.90
3562;DHT22;1795;52.074;4.754;2022-10-03T14:26:47;16.70;99.90
3562;DHT22;1795;52.074;4.754;2022-10-03T14:29:25;16.60;99.90
3562;DHT22;1795;52.074;4.754;2022-10-03T14:31:57;16.80;99.90
3562;DHT22;1795;52.074;4.754;2022-10-03T14:34:42;16.70;99.90
3562;DHT22;1795;52.074;4.754;2022-10-03T14:37:24;16.60;99.90
3562;DHT22;1795;52.074;4.754;2022-10-03T14:40:06;16.90;99.90
3562;DHT22;1795;52.074;4.754;2022-10-03T14:45:23;16.80;99.90
3562;DHT22;1795;52.074;4.754;2022-10-03T14:47:58;16.50;99.90
3562;DHT22;1795;52.074;4.754;2022-10-03T14:50:31;16.60;99.90
3562;DHT22;1795;52.074;4.754;2022-10-03T14:53:02;16.60;99.90
3562;DHT22;1795;52.074;4.754;2022-10-03T14:55:38;16.60;99.90
3562;DHT22;1795;52.074;4.754;2022-10-03T14:58:16;16.60;99.90
3562;DHT22;1795;52.074;4.754;2022-10-03T15:00:48;16.60;99.90
3562;DHT22;1795;52.074;4.754;2022-10-03T15:03:23;16.60;99.90
3562;DHT22;1795;52.074;4.754;2022-10-03T15:05:58;16.50;99.90
3562;DHT22;1795;52.074;4.754;2022-10-03T15:08:32;16.50;99.90
3562;DHT22;1795;52.074;4.754;2022-10-03T15:11:03;16.60;99.90
3562;DHT22;1795;52.074;4.754;2022-10-03T15:13:34;16.50;99.90
3562;DHT22;1795;52.074;4.754;2022-10-03T15:16:06;16.60;99.90
3562;DHT22;1795;52.074;4.754;2022-10-03T15:18:36;16.60;99.90
3562;DHT22;1795;52.074;4.754;2022-10-03T15:21:11;16.60;99.90
3562;DHT22;1795;52.074;4.754;2022-10-03T15:23:43;16.70;99.90
3562;DHT22;1795;52.074;4.754;2022-10-03T15:26:15;16.80;99.90
3562;DHT22;1795;52.074;4.754;2022-10-03T15:28:47;16.70;99.90
3562;DHT22;1795;52.074;4.754;2022-10-03T15:31:21;16.70;99.90
3562;DHT22;1795;52.074;4.754;2022-10-03T15:33:53;16.70;99.90
3562;DHT22;1795;52.074;4.754;2022-10-03T15:36:24;16.90;99.90
3562;DHT22;1795;52.074;4.754;2022-10-03T15:38:55;16.70;99.90
3562;DHT22;1795;52.074;4.754;2022-10-03T15:41:32;16.80;99.90
3562;DHT22;1795;52.074;4.754;2022-10-03T15:44:03;16.80;99.90
3562;DHT22;1795;52.074;4.754;2022-10-03T15:46:35;17.00;99.90
3562;DHT22;1795;52.074;4.754;2022-10-03T15:49:07;16.80;99.90
3562;DHT22;1795;52.074;4.754;2022-10-03T15:51:36;16.80;99.90
3562;DHT22;1795;52.074;4.754;2022-10-03T15:54:06;16.90;99.90
3562;DHT22;1795;52.074;4.754;2022-10-03T15:56:40;17.00;99.90
3562;DHT22;1795;52.074;4.754;2022-10-03T15:59:18;16.80;99.90
3562;DHT22;1795;52.074;4.754;2022-10-03T16:01:49;16.80;99.90
3562;DHT22;1795;52.074;4.754;2022-10-03T16:04:22;16.80;99.90
3562;DHT22;1795;52.074;4.754;2022-10-03T16:06:58;16.90;99.90
3562;DHT22;1795;52.074;4.754;2022-10-03T16:09:33;16.80;99.90
3562;DHT22;1795;52.074;4.754;2022-10-03T16:12:36;17.00;99.90
3562;DHT22;1795;52.074;4.754;2022-10-03T16:15:16;16.70;99.90
3562;DHT22;1795;52.074;4.754;2022-10-03T16:17:50;16.90;99.90
3562;DHT22;1795;52.074;4.754;2022-10-03T16:20:22;16.70;99.90
3562;DHT22;1795;52.074;4.754;2022-10-03T16:22:53;16.70;99.90
3562;DHT22;1795;52.074;4.754;2022-10-03T16:25:23;16.60;99.90
3562;DHT22;1795;52.074;4.754;2022-10-03T16:27:56;16.80;99.90
3562;DHT22;1795;52.074;4.754;2022-10-03T16:30:27;16.80;99.90
3562;DHT22;1795;52.074;4.754;2022-10-03T16:33:02;16.80;99.90
3562;DHT22;1795;52.074;4.754;2022-10-03T16:35:37;16.50;99.90
3562;DHT22;1795;52.074;4.754;2022-10-03T16:38:17;16.60;99.90
3562;DHT22;1795;52.074;4.754;2022-10-03T16:40:52;16.40;99.90
3562;DHT22;1795;52.074;4.754;2022-10-03T16:43:22;16.60;99.90
3562;DHT22;1795;52.074;4.754;2022-10-03T16:45:52;16.50;99.90
3562;DHT22;1795;52.074;4.754;2022-10-03T16:48:23;16.30;99.90
3562;DHT22;1795;52.074;4.754;2022-10-03T16:51:18;16.50;99.90
3562;DHT22;1795;52.074;4.754;2022-10-03T16:53:48;16.30;99.90
3562;DHT22;1795;52.074;4.754;2022-10-03T16:56:20;16.30;99.90
3562;DHT22;1795;52.074;4.754;2022-10-03T16:58:52;16.30;99.90
3562;DHT22;1795;52.074;4.754;2022-10-03T17:01:25;16.40;99.90
3562;DHT22;1795;52.074;4.754;2022-10-03T17:04:17;16.30;99.90
3562;DHT22;1795;52.074;4.754;2022-10-03T17:06:48;16.30;99.90
3562;DHT22;1795;52.074;4.754;2022-10-03T17:09:22;16.10;99.90
3562;DHT22;1795;52.074;4.754;2022-10-03T17:11:54;16.10;99.90
3562;DHT22;1795;52.074;4.754;2022-10-03T17:14:29;16.00;99.90
3562;DHT22;1795;52.074;4.754;2022-10-03T17:17:03;16.00;99.90
3562;DHT22;1795;52.074;4.754;2022-10-03T17:19:36;16.00;99.90
3562;DHT22;1795;52.074;4.754;2022-10-03T17:22:13;16.10;99.90
3562;DHT22;1795;52.074;4.754;2022-10-03T17:24:45;16.00;99.90
3562;DHT22;1795;52.074;4.754;2022-10-03T17:27:19;15.90;99.90
3562;DHT22;1795;52.074;4.754;2022-10-03T17:29:56;15.80;99.90
3562;DHT22;1795;52.074;4.754;2022-10-03T17:32:31;15.70;99.90
3562;DHT22;1795;52.074;4.754;2022-10-03T17:35:09;15.70;99.90
3562;DHT22;1795;52.074;4.754;2022-10-03T17:38:10;15.70;99.90
3562;DHT22;1795;52.074;4.754;2022-10-03T17:41:11;15.60;99.90
3562;DHT22;1795;52.074;4.754;2022-10-03T17:43:42;15.60;99.90
3562;DHT22;1795;52.074;4.754;2022-10-03T17:46:18;15.60;99.90
3562;DHT22;1795;52.074;4.754;2022-10-03T17:48:54;15.60;99.90
3562;DHT22;1795;52.074;4.754;2022-10-03T17:51:33;15.50;99.90
3562;DHT22;1795;52.074;4.754;2022-10-03T17:54:09;15.50;99.90
3562;DHT22;1795;52.074;4.754;2022-10-03T17:56:42;15.50;99.90
3562;DHT22;1795;52.074;4.754;2022-10-03T17:59:13;15.50;99.90
3562;DHT22;1795;52.074;4.754;2022-10-03T18:01:46;15.40;99.90
3562;DHT22;1795;52.074;4.754;2022-10-03T18:04:18;15.40;99.90
3562;DHT22;1795;52.074;4.754;2022-10-03T18:06:48;15.40;99.90
3562;DHT22;1795;52.074;4.754;2022-10-03T18:09:24;15.30;99.90
3562;DHT22;1795;52.074;4.754;2022-10-03T18:11:58;15.20;99.90
3562;DHT22;1795;52.074;4.754;2022-10-03T18:14:35;15.20;99.90
3562;DHT22;1795;52.074;4.754;2022-10-03T18:17:13;15.10;99.90
3562;DHT22;1795;52.074;4.754;2022-10-03T18:19:59;15.00;99.90
3562;DHT22;1795;52.074;4.754;2022-10-03T18:22:34;15.00;99.90
3562;DHT22;1795;52.074;4.754;2022-10-03T18:25:12;15.10;99.90
3562;DHT22;1795;52.074;4.754;2022-10-03T18:28:09;14.90;99.90
3562;DHT22;1795;52.074;4.754;2022-10-03T18:30:44;14.90;99.90
3562;DHT22;1795;52.074;4.754;2022-10-03T18:33:19;14.90;99.90
3562;DHT22;1795;52.074;4.754;2022-10-03T18:35:48;14.80;99.90
3562;DHT22;1795;52.074;4.754;2022-10-03T18:38:19;14.80;99.90
3562;DHT22;1795;52.074;4.754;2022-10-03T18:40:51;14.90;99.90
3562;DHT22;1795;52.074;4.754;2022-10-03T18:43:35;14.70;99.90
3562;DHT22;1795;52.074;4.754;2022-10-03T18:46:16;14.70;99.90
3562;DHT22;1795;52.074;4.754;2022-10-03T18:49:00;14.80;99.90
3562;DHT22;1795;52.074;4.754;2022-10-03T18:51:54;14.60;99.90
3562;DHT22;1795;52.074;4.754;2022-10-03T18:54:33;14.60;99.90
3562;DHT22;1795;52.074;4.754;2022-10-03T18:57:06;14.50;99.90
3562;DHT22;1795;52.074;4.754;2022-10-03T18:59:43;14.50;99.90
3562;DHT22;1795;52.074;4.754;2022-10-03T19:02:17;14.60;99.90
3562;DHT22;1795;52.074;4.754;2022-10-03T19:04:52;14.60;99.90
3562;DHT22;1795;52.074;4.754;2022-10-03T19:07:22;14.40;99.90
3562;DHT22;1795;52.074;4.754;2022-10-03T19:10:20;14.60;99.90
3562;DHT22;1795;52.074;4.754;2022-10-03T19:12:54;14.50;99.90
3562;DHT22;1795;52.074;4.754;2022-10-03T19:15:34;14.30;99.90
3562;DHT22;1795;52.074;4.754;2022-10-03T19:18:14;14.30;99.90
3562;DHT22;1795;52.074;4.754;2022-10-03T19:20:50;14.50;99.90
3562;DHT22;1795;52.074;4.754;2022-10-03T19:23:21;14.30;99.90
3562;DHT22;1795;52.074;4.754;2022-10-03T19:25:53;14.30;99.90
3562;DHT22;1795;52.074;4.754;2022-10-03T19:28:27;14.30;99.90
3562;DHT22;1795;52.074;4.754;2022-10-03T19:31:00;14.40;99.90
3562;DHT22;1795;52.074;4.754;2022-10-03T19:33:32;14.40;99.90
3562;DHT22;1795;52.074;4.754;2022-10-03T19:36:08;14.30;99.90
3562;DHT22;1795;52.074;4.754;2022-10-03T19:38:42;14.30;99.90
3562;DHT22;1795;52.074;4.754;2022-10-03T19:41:15;14.20;99.90
3562;DHT22;1795;52.074;4.754;2022-10-03T19:43:49;14.20;99.90
3562;DHT22;1795;52.074;4.754;2022-10-03T19:46:30;14.20;99.90
3562;DHT22;1795;52.074;4.754;2022-10-03T19:49:21;14.20;99.90
3562;DHT22;1795;52.074;4.754;2022-10-03T19:52:09;14.10;99.90
3562;DHT22;1795;52.074;4.754;2022-10-03T19:54:45;14.20;99.90
3562;DHT22;1795;52.074;4.754;2022-10-03T19:57:17;14.10;99.90
3562;DHT22;1795;52.074;4.754;2022-10-03T19:59:50;14.10;99.90
3562;DHT22;1795;52.074;4.754;2022-10-03T20:02:23;14.30;99.90
3562;DHT22;1795;52.074;4.754;2022-10-03T20:04:53;14.20;99.90
3562;DHT22;1795;52.074;4.754;2022-10-03T20:07:37;14.10;99.90
3562;DHT22;1795;52.074;4.754;2022-10-03T20:10:22;14.30;99.90
3562;DHT22;1795;52.074;4.754;2022-10-03T20:12:53;14.10;99.90
3562;DHT22;1795;52.074;4.754;2022-10-03T20:15:22;14.00;99.90
3562;DHT22;1795;52.074;4.754;2022-10-03T20:17:55;14.00;99.90
3562;DHT22;1795;52.074;4.754;2022-10-03T20:20:25;14.10;99.90
3562;DHT22;1795;52.074;4.754;2022-10-03T20:23:01;14.20;99.90
3562;DHT22;1795;52.074;4.754;2022-10-03T20:25:34;14.00;99.90